createdAt,value
2024-01-08T00:00:12.190Z,79.29
2024-01-08T00:02:16.410Z,79.22
2024-01-08T00:04:18.680Z,79.38
2024-01-08T00:06:22.424Z,79.19
2024-01-08T00:08:25.547Z,79.32
2024-01-08T00:10:30.548Z,79.21
2024-01-08T00:12:33.589Z,79.19
2024-01-08T00:14:37.791Z,79.32
2024-01-08T00:16:41.021Z,79.36
2024-01-08T00:18:44.674Z,79.39
2024-01-08T00:20:48.867Z,79.37
2024-01-08T00:22:53.039Z,79.51
2024-01-08T00:24:56.183Z,79.34
2024-01-08T00:27:00.615Z,79.58
2024-01-08T00:29:06.457Z,79.46
2024-01-08T00:31:09.598Z,79.49
2024-01-08T00:33:12.833Z,79.52
2024-01-08T00:35:17.300Z,79.46
2024-01-08T00:37:20.398Z,79.65
2024-01-08T00:39:24.458Z,79.77
2024-01-08T00:41:27.585Z,79.87
2024-01-08T00:43:37.049Z,79.99
2024-01-08T00:45:39.071Z,80.30
2024-01-08T00:47:42.427Z,80.49
2024-01-08T00:49:45.574Z,80.49
2024-01-08T00:51:48.757Z,80.41
2024-01-08T00:53:52.993Z,80.48
2024-01-08T00:55:57.059Z,80.71
2024-01-08T00:58:00.660Z,80.75
2024-01-08T01:00:06.650Z,81.00
2024-01-08T01:02:09.713Z,80.93
2024-01-08T01:04:14.995Z,81.13
2024-01-08T01:06:21.732Z,81.28
2024-01-08T01:08:24.885Z,81.32
2024-01-08T01:10:27.924Z,81.59
2024-01-08T01:12:30.968Z,81.68
2024-01-08T01:14:34.095Z,81.65
2024-01-08T01:16:38.572Z,81.81
2024-01-08T01:18:41.842Z,81.92
2024-01-08T01:20:44.919Z,81.94
2024-01-08T01:22:48.130Z,82.17
2024-01-08T01:24:51.192Z,82.45
2024-01-08T01:26:54.301Z,82.44
2024-01-08T01:28:57.678Z,82.72
2024-01-08T01:31:04.599Z,82.70
2024-01-08T01:33:09.180Z,82.83
2024-01-08T01:35:12.422Z,83.10
2024-01-08T01:37:15.517Z,83.31
2024-01-08T01:39:18.816Z,83.32
2024-01-08T01:41:21.004Z,83.44
2024-01-08T01:43:26.149Z,83.46
2024-01-08T01:45:29.193Z,83.41
2024-01-08T01:47:33.389Z,83.57
2024-01-08T01:49:37.916Z,83.57
2024-01-08T01:51:42.197Z,83.74
2024-01-08T01:53:46.748Z,83.67
2024-01-08T01:55:50.425Z,83.93
2024-01-08T01:57:54.050Z,83.92
2024-01-08T01:59:57.235Z,83.99
2024-01-08T02:02:01.217Z,84.15
2024-01-08T02:04:05.846Z,84.31
2024-01-08T02:06:12.115Z,84.42
2024-01-08T02:08:15.412Z,84.46
2024-01-08T02:10:17.898Z,84.61
2024-01-08T02:12:21.659Z,84.60
2024-01-08T02:14:24.979Z,84.67
2024-01-08T02:16:28.071Z,84.82
2024-01-08T02:18:31.133Z,84.77
2024-01-08T02:20:34.562Z,84.89
2024-01-08T02:22:42.132Z,84.84
2024-01-08T02:24:45.250Z,84.96
2024-01-08T02:26:48.302Z,84.82
2024-01-08T02:28:51.350Z,84.87
2024-01-08T02:30:54.547Z,84.77
2024-01-08T02:32:57.734Z,84.59
2024-01-08T02:35:01.138Z,84.57
2024-01-08T02:37:04.244Z,84.53
2024-01-08T02:39:08.904Z,84.34
2024-01-08T02:41:11.977Z,84.29
2024-01-08T02:43:15.137Z,84.29
2024-01-08T02:45:18.251Z,84.15
2024-01-08T02:47:20.687Z,84.16
2024-01-08T02:49:23.962Z,84.03
2024-01-08T02:51:27.058Z,83.95
2024-01-08T02:53:30.198Z,83.80
2024-01-08T02:55:34.646Z,83.91
2024-01-08T02:57:37.694Z,83.80
2024-01-08T02:59:40.734Z,83.77
2024-01-08T03:01:44.030Z,83.84
2024-01-08T03:03:46.217Z,83.63
2024-01-08T03:05:49.305Z,83.58
2024-01-08T03:07:52.507Z,83.65
2024-01-08T03:09:58.240Z,83.62
2024-01-08T03:12:02.740Z,83.53
2024-01-08T03:14:06.199Z,83.48
2024-01-08T03:16:10.275Z,83.54
2024-01-08T03:18:14.153Z,83.47
2024-01-08T03:20:17.536Z,83.52
2024-01-08T03:22:20.632Z,83.41
2024-01-08T03:24:23.743Z,83.48
2024-01-08T03:26:26.908Z,83.61
2024-01-08T03:28:31.363Z,83.43
2024-01-08T03:30:34.854Z,83.41
2024-01-08T03:32:37.965Z,83.33
2024-01-08T03:34:43.870Z,83.31
2024-01-08T03:36:47.532Z,83.26
2024-01-08T03:38:50.582Z,83.28
2024-01-08T03:40:53.583Z,83.29
2024-01-08T03:42:55.649Z,83.27
2024-01-08T03:45:00.263Z,83.36
2024-01-08T03:47:03.385Z,83.23
2024-01-08T03:49:06.936Z,83.28
2024-01-08T03:51:10.423Z,83.42
2024-01-08T03:53:13.721Z,83.25
2024-01-08T03:55:16.974Z,83.25
2024-01-08T03:57:19.180Z,83.33
2024-01-08T03:59:22.204Z,83.54
2024-01-08T04:01:25.625Z,83.58
2024-01-08T04:03:28.717Z,83.51
2024-01-08T04:05:31.821Z,83.69
2024-01-08T04:07:34.953Z,83.66
2024-01-08T04:09:38.000Z,83.64
2024-01-08T04:11:41.713Z,83.78
2024-01-08T04:13:45.347Z,83.75
2024-01-08T04:15:48.385Z,83.75
2024-01-08T04:17:53.178Z,83.79
2024-01-08T04:19:56.434Z,83.85
2024-01-08T04:21:59.517Z,83.98
2024-01-08T04:24:02.537Z,83.95
2024-01-08T04:26:05.584Z,84.01
2024-01-08T04:28:07.611Z,83.96
2024-01-08T04:30:11.361Z,84.02
2024-01-08T04:32:14.459Z,84.03
2024-01-08T04:34:19.108Z,83.95
2024-01-08T04:36:22.125Z,84.07
2024-01-08T04:38:25.149Z,84.03
2024-01-08T04:40:28.155Z,84.05
2024-01-08T04:42:31.219Z,84.05
2024-01-08T04:44:34.088Z,84.05
2024-01-08T04:46:37.404Z,84.11
2024-01-08T04:48:39.660Z,84.11
2024-01-08T04:50:44.136Z,84.23
2024-01-08T04:52:48.254Z,84.23
2024-01-08T04:54:51.447Z,84.28
2024-01-08T04:56:56.705Z,84.23
2024-01-08T04:58:59.762Z,84.09
2024-01-08T05:01:02.872Z,84.04
2024-01-08T05:03:06.454Z,84.13
2024-01-08T05:05:09.722Z,84.31
2024-01-08T05:07:14.732Z,84.31
2024-01-08T05:09:17.858Z,84.26
2024-01-08T05:11:19.927Z,84.21
2024-01-08T05:13:23.036Z,84.08
2024-01-08T05:15:26.074Z,84.23
2024-01-08T05:17:29.310Z,84.14
2024-01-08T05:19:31.639Z,84.12
2024-01-08T05:21:35.012Z,84.21
2024-01-08T05:23:39.457Z,84.14
2024-01-08T05:25:41.644Z,84.21
2024-01-08T05:27:45.458Z,84.17
2024-01-08T05:29:48.986Z,84.22
2024-01-08T05:31:52.383Z,84.31
2024-01-08T05:33:56.832Z,84.30
2024-01-08T05:35:59.883Z,84.33
2024-01-08T05:38:03.170Z,84.23
2024-01-08T05:40:09.070Z,84.33
2024-01-08T05:42:12.094Z,84.61
2024-01-08T05:44:15.249Z,84.51
2024-01-08T05:46:19.542Z,84.52
2024-01-08T05:48:22.794Z,84.44
2024-01-08T05:50:26.972Z,84.61
2024-01-08T05:52:30.189Z,84.66
2024-01-08T05:54:33.195Z,84.58
2024-01-08T05:56:38.666Z,84.54
2024-01-08T05:58:41.939Z,84.55
2024-01-08T06:00:45.029Z,84.63
2024-01-08T06:02:48.346Z,84.70
2024-01-08T06:04:51.428Z,84.52
2024-01-08T06:06:55.457Z,84.49
2024-01-08T06:08:58.674Z,84.62
2024-01-08T06:11:04.787Z,84.59
2024-01-08T06:13:12.462Z,84.08
2024-01-08T06:15:15.523Z,83.82
2024-01-08T06:17:19.197Z,83.41
2024-01-08T06:19:22.773Z,83.36
2024-01-08T06:21:25.806Z,83.02
2024-01-08T06:23:28.835Z,82.43
2024-01-08T06:25:30.926Z,81.73
2024-01-08T06:27:33.985Z,80.93
2024-01-08T06:29:38.400Z,80.01
2024-01-08T06:31:41.435Z,79.42
2024-01-08T06:33:44.538Z,78.54
2024-01-08T06:35:46.698Z,77.69
2024-01-08T06:37:50.030Z,77.14
2024-01-08T06:39:52.200Z,76.49
2024-01-08T06:41:55.270Z,75.94
2024-01-08T06:43:58.393Z,75.64
2024-01-08T06:46:02.766Z,75.01
2024-01-08T06:48:06.624Z,74.66
2024-01-08T06:50:10.656Z,74.53
2024-01-08T06:52:13.688Z,74.24
2024-01-08T06:54:16.739Z,74.09
2024-01-08T06:56:19.100Z,73.82
2024-01-08T06:58:22.164Z,73.49
2024-01-08T07:00:27.300Z,73.42
2024-01-08T07:02:31.696Z,72.96
2024-01-08T07:04:34.834Z,72.71
2024-01-08T07:06:38.067Z,72.40
2024-01-08T07:08:41.197Z,72.49
2024-01-08T07:10:44.394Z,71.90
2024-01-08T07:12:47.694Z,71.57
2024-01-08T07:14:51.186Z,71.58
2024-01-08T07:16:54.353Z,71.48
2024-01-08T07:18:58.785Z,71.49
2024-01-08T07:21:01.916Z,71.47
2024-01-08T07:23:05.477Z,71.18
2024-01-08T07:25:09.017Z,71.11
2024-01-08T07:27:12.038Z,71.03
2024-01-08T07:29:15.118Z,70.93
2024-01-08T07:31:18.377Z,70.91
2024-01-08T07:33:22.370Z,71.03
2024-01-08T07:35:26.899Z,71.04
2024-01-08T07:37:29.989Z,70.78
2024-01-08T07:39:33.010Z,70.78
2024-01-08T07:41:36.034Z,70.68
2024-01-08T07:43:39.390Z,70.52
2024-01-08T07:45:42.858Z,70.56
2024-01-08T07:47:46.030Z,70.70
2024-01-08T07:49:49.159Z,70.70
2024-01-08T07:51:56.317Z,70.65
2024-01-08T07:53:59.369Z,70.78
2024-01-08T07:56:02.521Z,70.75
2024-01-08T07:58:04.957Z,70.94
2024-01-08T08:00:10.616Z,71.10
2024-01-08T08:02:14.429Z,71.33
2024-01-08T08:04:20.235Z,71.13
2024-01-08T08:06:24.158Z,70.91
2024-01-08T08:08:29.115Z,70.76
2024-01-08T08:10:31.231Z,70.68
2024-01-08T08:12:34.414Z,70.87
2024-01-08T08:14:37.956Z,70.57
2024-01-08T08:16:41.628Z,70.60
2024-01-08T08:18:46.159Z,70.64
2024-01-08T08:20:48.305Z,70.52
2024-01-08T08:22:52.371Z,70.54
2024-01-08T08:24:57.116Z,70.53
2024-01-08T08:27:01.560Z,70.59
2024-01-08T08:29:05.304Z,70.40
2024-01-08T08:31:08.433Z,70.40
2024-01-08T08:33:11.744Z,70.40
2024-01-08T08:35:15.074Z,70.47
2024-01-08T08:37:18.254Z,70.28
2024-01-08T08:39:21.290Z,70.26
2024-01-08T08:41:25.884Z,70.21
2024-01-08T08:43:31.514Z,69.97
2024-01-08T08:45:34.615Z,70.01
2024-01-08T08:47:36.924Z,69.95
2024-01-08T08:49:40.548Z,70.04
2024-01-08T08:51:43.958Z,70.02
2024-01-08T08:53:47.215Z,70.04
2024-01-08T08:55:50.590Z,70.06
2024-01-08T08:57:54.041Z,69.82
2024-01-08T08:59:57.072Z,70.28
2024-01-08T09:02:00.269Z,70.17
2024-01-08T09:04:03.519Z,70.36
2024-01-08T09:06:06.899Z,70.46
2024-01-08T09:08:10.031Z,70.32
2024-01-08T09:10:13.135Z,70.67
2024-01-08T09:12:16.877Z,70.67
2024-01-08T09:14:21.842Z,70.50
2024-01-08T09:16:24.410Z,70.67
2024-01-08T09:18:27.780Z,70.56
2024-01-08T09:20:30.884Z,70.15
2024-01-08T09:22:34.004Z,70.11
2024-01-08T09:24:37.014Z,70.08
2024-01-08T09:26:40.392Z,69.93
2024-01-08T09:28:43.471Z,69.87
2024-01-08T09:30:49.187Z,69.78
2024-01-08T09:32:52.469Z,69.53
2024-01-08T09:34:54.611Z,69.25
2024-01-08T09:36:57.670Z,69.33
2024-01-08T09:39:00.961Z,69.39
2024-01-08T09:41:08.020Z,69.52
2024-01-08T09:43:20.331Z,69.34
2024-01-08T09:45:25.205Z,69.41
2024-01-08T09:47:31.449Z,69.58
2024-01-08T09:49:35.698Z,69.83
2024-01-08T09:51:41.242Z,69.72
2024-01-08T09:53:46.511Z,69.71
2024-01-08T09:55:51.367Z,69.50
2024-01-08T09:57:54.385Z,69.57
2024-01-08T09:59:57.853Z,69.55
2024-01-08T10:02:00.938Z,69.53
2024-01-08T10:04:05.796Z,69.45
2024-01-08T10:06:08.781Z,69.19
2024-01-08T10:08:12.095Z,69.23
2024-01-08T10:10:14.201Z,69.02
2024-01-08T10:12:17.813Z,68.91
2024-01-08T10:14:20.876Z,68.68
2024-01-08T10:16:36.670Z,68.49
2024-01-08T10:18:49.560Z,68.60
2024-01-08T10:21:10.288Z,68.41
2024-01-08T10:23:17.942Z,68.32
2024-01-08T10:25:23.188Z,67.87
2024-01-08T10:27:26.403Z,67.86
2024-01-08T10:29:29.582Z,67.54
2024-01-08T10:31:34.169Z,67.55
2024-01-08T10:33:37.693Z,67.53
2024-01-08T10:35:42.552Z,67.49
2024-01-08T10:37:50.808Z,67.43
2024-01-08T10:39:55.773Z,67.22
2024-01-08T10:41:58.920Z,67.10
2024-01-08T10:44:02.341Z,66.97
2024-01-08T10:46:07.978Z,66.48
2024-01-08T10:48:14.437Z,66.64
2024-01-08T10:50:20.484Z,66.61
2024-01-08T10:52:27.859Z,66.65
2024-01-08T10:54:41.379Z,66.67
2024-01-08T10:56:44.466Z,66.39
2024-01-08T10:58:57.715Z,66.07
2024-01-08T11:01:00.000Z,66.18
2024-01-08T11:03:03.960Z,66.01
2024-01-08T11:05:08.232Z,65.93
2024-01-08T11:07:14.246Z,66.14
2024-01-08T11:09:27.639Z,66.21
2024-01-08T11:11:35.254Z,66.25
2024-01-08T11:13:40.915Z,66.21
2024-01-08T11:15:46.302Z,66.12
2024-01-08T11:17:53.570Z,65.93
2024-01-08T11:19:58.877Z,66.00
2024-01-08T11:22:16.660Z,66.00
2024-01-08T11:24:18.769Z,65.86
2024-01-08T11:26:23.567Z,65.68
2024-01-08T11:28:27.169Z,65.39
2024-01-08T11:30:30.261Z,65.48
2024-01-08T11:33:06.459Z,65.33
2024-01-08T11:35:14.968Z,65.33
2024-01-08T11:37:34.280Z,65.35
2024-01-08T11:39:42.193Z,65.03
2024-01-08T11:41:46.062Z,65.34
2024-01-08T11:43:51.270Z,65.16
2024-01-08T11:45:54.349Z,65.30
2024-01-08T11:47:57.848Z,65.24
2024-01-08T11:50:00.549Z,65.18
2024-01-08T11:52:04.326Z,65.04
2024-01-08T11:54:08.522Z,65.03
2024-01-08T11:56:11.642Z,65.08
2024-01-08T11:58:14.726Z,65.21
2024-01-08T12:00:21.194Z,64.84
2024-01-08T12:02:28.555Z,64.34
2024-01-08T12:04:31.030Z,64.31
2024-01-08T12:06:34.445Z,64.23
2024-01-08T12:08:37.742Z,64.16
2024-01-08T12:10:41.738Z,64.28
2024-01-08T12:12:45.707Z,64.42
2024-01-08T12:14:49.901Z,64.27
2024-01-08T12:17:01.911Z,64.42
2024-01-08T12:19:08.118Z,64.40
2024-01-08T12:21:11.574Z,64.54
2024-01-08T12:23:15.176Z,64.63
2024-01-08T12:25:18.369Z,64.69
2024-01-08T12:27:22.338Z,64.29
2024-01-08T12:29:25.589Z,64.21
2024-01-08T12:31:34.447Z,64.64
2024-01-08T12:33:39.738Z,64.49
2024-01-08T12:35:43.586Z,64.46
2024-01-08T12:37:46.842Z,64.87
2024-01-08T12:39:50.073Z,64.88
2024-01-08T12:41:56.522Z,64.50
2024-01-08T12:43:59.997Z,64.21
2024-01-08T12:46:04.544Z,64.35
2024-01-08T12:48:08.261Z,64.45
2024-01-08T12:50:12.920Z,64.27
2024-01-08T12:52:16.058Z,64.28
2024-01-08T12:54:19.187Z,64.22
2024-01-08T12:56:22.288Z,64.38
2024-01-08T12:58:25.436Z,64.55
2024-01-08T13:00:29.851Z,64.84
2024-01-08T13:02:34.382Z,64.53
2024-01-08T13:04:37.986Z,64.32
2024-01-08T13:06:42.779Z,64.40
2024-01-08T13:08:45.015Z,64.54
2024-01-08T13:10:48.200Z,64.73
2024-01-08T13:12:52.126Z,64.77
2024-01-08T13:14:54.286Z,64.60
2024-01-08T13:16:57.551Z,64.59
2024-01-08T13:19:00.801Z,64.73
2024-01-08T13:21:04.788Z,64.58
2024-01-08T13:23:09.257Z,65.05
2024-01-08T13:25:14.299Z,64.92
2024-01-08T13:27:17.358Z,64.83
2024-01-08T13:29:21.850Z,64.92
2024-01-08T13:31:25.228Z,64.84
2024-01-08T13:33:27.425Z,64.82
2024-01-08T13:35:30.570Z,64.50
2024-01-08T13:37:33.817Z,64.72
2024-01-08T13:39:40.320Z,64.66
2024-01-08T13:41:43.915Z,64.90
2024-01-08T13:43:47.099Z,64.84
2024-01-08T13:45:49.219Z,64.72
2024-01-08T13:47:52.524Z,64.82
2024-01-08T13:49:55.905Z,64.79
2024-01-08T13:51:59.047Z,65.01
2024-01-08T13:54:05.676Z,65.20
2024-01-08T13:56:09.697Z,65.29
2024-01-08T13:58:12.852Z,65.06
2024-01-08T14:00:17.359Z,65.22
2024-01-08T14:02:20.734Z,65.30
2024-01-08T14:04:25.072Z,65.43
2024-01-08T14:06:28.237Z,65.78
2024-01-08T14:08:32.417Z,65.95
2024-01-08T14:10:35.541Z,65.96
2024-01-08T14:12:40.242Z,66.09
2024-01-08T14:14:43.366Z,66.23
2024-01-08T14:16:46.517Z,66.37
2024-01-08T14:18:49.743Z,66.66
2024-01-08T14:20:52.998Z,66.61
2024-01-08T14:22:56.224Z,66.87
2024-01-08T14:25:00.049Z,66.87
2024-01-08T14:27:04.275Z,67.01
2024-01-08T14:29:08.838Z,67.18
2024-01-08T14:31:12.113Z,67.26
2024-01-08T14:33:15.746Z,67.43
2024-01-08T14:35:19.041Z,67.60
2024-01-08T14:37:21.331Z,67.49
2024-01-08T14:39:24.768Z,67.71
2024-01-08T14:41:27.902Z,67.89
2024-01-08T14:43:32.471Z,68.03
2024-01-08T14:45:38.560Z,68.14
2024-01-08T14:47:42.803Z,68.25
2024-01-08T14:49:46.516Z,68.36
2024-01-08T14:51:49.995Z,68.22
2024-01-08T14:53:53.378Z,68.28
2024-01-08T14:55:56.923Z,68.60
2024-01-08T14:58:00.142Z,68.55
2024-01-08T15:00:07.290Z,68.66
2024-01-08T15:02:11.187Z,68.66
2024-01-08T15:04:14.791Z,68.69
2024-01-08T15:06:18.316Z,68.86
2024-01-08T15:08:20.705Z,69.03
2024-01-08T15:10:24.263Z,69.19
2024-01-08T15:12:27.665Z,69.32
2024-01-08T15:14:31.027Z,69.46
2024-01-08T15:16:34.293Z,69.46
2024-01-08T15:18:39.007Z,69.60
2024-01-08T15:20:42.918Z,69.70
2024-01-08T15:22:46.283Z,69.96
2024-01-08T15:24:56.885Z,70.16
2024-01-08T15:27:00.152Z,70.18
2024-01-08T15:29:03.670Z,70.27
2024-01-08T15:31:07.387Z,70.44
2024-01-08T15:33:10.626Z,70.46
2024-01-08T15:35:15.332Z,70.61
2024-01-08T15:37:17.934Z,70.73
2024-01-08T15:39:21.024Z,70.96
2024-01-08T15:41:24.403Z,71.10
2024-01-08T15:43:31.529Z,71.17
2024-01-08T15:45:34.918Z,71.29
2024-01-08T15:47:38.060Z,71.45
2024-01-08T15:49:41.231Z,71.28
2024-01-08T15:51:45.641Z,71.37
2024-01-08T15:53:48.041Z,71.69
2024-01-08T15:55:51.131Z,71.68
2024-01-08T15:57:54.237Z,71.81
2024-01-08T15:59:57.355Z,72.04
2024-01-08T16:02:00.573Z,72.17
2024-01-08T16:04:03.704Z,72.13
2024-01-08T16:06:11.217Z,71.99
2024-01-08T16:08:17.688Z,72.54
2024-01-08T16:10:20.814Z,72.69
2024-01-08T16:12:23.817Z,72.71
2024-01-08T16:14:26.903Z,72.52
2024-01-08T16:16:29.960Z,72.76
2024-01-08T16:18:33.510Z,72.76
2024-01-08T16:20:36.587Z,73.03
2024-01-08T16:22:39.601Z,73.04
2024-01-08T16:24:45.506Z,73.18
2024-01-08T16:26:49.122Z,73.20
2024-01-08T16:28:52.170Z,73.21
2024-01-08T16:30:55.923Z,73.31
2024-01-08T16:32:59.737Z,73.45
2024-01-08T16:35:03.566Z,73.52
2024-01-08T16:37:06.849Z,73.44
2024-01-08T16:39:10.446Z,73.56
2024-01-08T16:41:14.944Z,73.87
2024-01-08T16:43:19.872Z,73.88
2024-01-08T16:45:22.900Z,73.98
2024-01-08T16:47:25.173Z,74.06
2024-01-08T16:49:28.375Z,74.05
2024-01-08T16:51:31.638Z,74.39
2024-01-08T16:53:33.985Z,74.49
2024-01-08T16:55:37.064Z,74.36
2024-01-08T16:57:41.458Z,74.49
2024-01-08T16:59:46.289Z,74.49
2024-01-08T17:01:49.528Z,74.48
2024-01-08T17:03:52.998Z,74.71
2024-01-08T17:06:01.606Z,74.95
2024-01-08T17:08:07.271Z,74.99
2024-01-08T17:10:11.923Z,74.99
2024-01-08T17:12:15.164Z,75.18
2024-01-08T17:14:19.972Z,75.27
2024-01-08T17:16:23.173Z,75.30
2024-01-08T17:18:27.500Z,75.27
2024-01-08T17:20:31.168Z,75.46
2024-01-08T17:22:33.361Z,75.18
2024-01-08T17:24:36.696Z,75.46
2024-01-08T17:26:42.992Z,75.54
2024-01-08T17:28:46.660Z,75.63
2024-01-08T17:30:51.813Z,75.73
2024-01-08T17:32:56.157Z,75.75
2024-01-08T17:34:59.902Z,75.91
2024-01-08T17:37:02.282Z,76.11
2024-01-08T17:39:05.821Z,76.11
2024-01-08T17:41:09.491Z,76.20
2024-01-08T17:43:13.022Z,76.33
2024-01-08T17:45:16.178Z,76.32
2024-01-08T17:47:20.249Z,76.55
2024-01-08T17:49:23.920Z,76.54
2024-01-08T17:51:28.338Z,76.78
2024-01-08T17:53:31.519Z,76.91
2024-01-08T17:55:35.185Z,76.93
2024-01-08T17:57:37.817Z,76.87
2024-01-08T17:59:41.978Z,77.01
2024-01-08T18:01:48.219Z,76.97
2024-01-08T18:03:52.707Z,77.21
2024-01-08T18:05:56.082Z,77.27
2024-01-08T18:07:59.276Z,77.38
2024-01-08T18:10:02.536Z,77.56
2024-01-08T18:12:06.880Z,77.53
2024-01-08T18:14:12.251Z,77.63
2024-01-08T18:16:16.501Z,77.67
2024-01-08T18:18:20.399Z,77.75
2024-01-08T18:20:25.500Z,77.62
2024-01-08T18:22:29.209Z,77.59
2024-01-08T18:24:32.823Z,77.60
2024-01-08T18:26:36.460Z,77.58
2024-01-08T18:28:39.591Z,77.85
2024-01-08T18:30:46.878Z,77.79
2024-01-08T18:32:50.315Z,77.92
2024-01-08T18:34:52.737Z,77.89
2024-01-08T18:36:57.179Z,77.93
2024-01-08T18:39:01.043Z,78.14
2024-01-08T18:41:04.625Z,78.13
2024-01-08T18:43:07.740Z,78.18
2024-01-08T18:45:13.071Z,78.15
2024-01-08T18:47:16.717Z,78.20
2024-01-08T18:49:20.089Z,78.31
2024-01-08T18:51:22.295Z,78.28
2024-01-08T18:53:26.998Z,78.37
2024-01-08T18:55:30.043Z,78.33
2024-01-08T18:57:33.795Z,78.28
2024-01-08T18:59:38.512Z,78.36
2024-01-08T19:01:43.636Z,78.58
2024-01-08T19:03:48.152Z,78.50
2024-01-08T19:05:50.412Z,78.68
2024-01-08T19:07:53.726Z,78.62
2024-01-08T19:09:58.158Z,78.63
2024-01-08T19:12:01.274Z,78.69
2024-01-08T19:14:04.695Z,78.82
2024-01-08T19:16:08.260Z,78.86
2024-01-08T19:18:13.240Z,78.89
2024-01-08T19:20:17.659Z,78.82
2024-01-08T19:22:23.200Z,78.92
2024-01-08T19:24:27.723Z,78.89
2024-01-08T19:26:31.293Z,78.96
2024-01-08T19:28:34.504Z,78.87
2024-01-08T19:30:39.378Z,78.96
2024-01-08T19:32:43.363Z,79.20
2024-01-08T19:34:47.568Z,79.13
2024-01-08T19:36:50.967Z,78.92
2024-01-08T19:38:54.116Z,78.89
2024-01-08T19:40:58.211Z,79.16
2024-01-08T19:43:02.868Z,79.11
2024-01-08T19:45:06.477Z,79.11
2024-01-08T19:47:09.827Z,78.96
2024-01-08T19:49:20.857Z,78.96
2024-01-08T19:51:29.662Z,79.00
2024-01-08T19:53:32.776Z,79.00
2024-01-08T19:55:37.851Z,79.15
2024-01-08T19:57:40.980Z,79.29
2024-01-08T19:59:45.509Z,79.23
2024-01-08T20:01:48.941Z,79.26
2024-01-08T20:03:52.051Z,79.26
2024-01-08T20:05:55.561Z,79.31
2024-01-08T20:07:58.873Z,79.25
2024-01-08T20:10:01.260Z,79.46
2024-01-08T20:12:06.413Z,79.53
2024-01-08T20:14:09.653Z,79.47
2024-01-08T20:16:15.085Z,79.49
2024-01-08T20:18:18.681Z,79.60
2024-01-08T20:20:23.555Z,79.47
2024-01-08T20:22:26.644Z,79.63
2024-01-08T20:24:30.736Z,79.81
2024-01-08T20:26:33.840Z,79.71
2024-01-08T20:28:37.274Z,79.81
2024-01-08T20:30:40.329Z,79.76
2024-01-08T20:32:48.772Z,79.78
2024-01-08T20:34:52.233Z,79.74
2024-01-08T20:36:56.702Z,79.94
2024-01-08T20:38:59.790Z,79.83
2024-01-08T20:41:02.834Z,79.96
2024-01-08T20:43:05.976Z,80.05
2024-01-08T20:45:09.671Z,80.11
2024-01-08T20:47:12.754Z,80.23
2024-01-08T20:49:17.595Z,80.32
2024-01-08T20:51:25.726Z,80.30
2024-01-08T20:53:29.248Z,80.39
2024-01-08T20:55:32.401Z,80.51
2024-01-08T20:57:35.401Z,80.54
2024-01-08T20:59:40.409Z,80.72
2024-01-08T21:01:43.521Z,80.80
2024-01-08T21:03:45.632Z,80.96
2024-01-08T21:05:51.144Z,81.09
2024-01-08T21:07:54.036Z,80.97
2024-01-08T21:09:57.184Z,81.24
2024-01-08T21:11:59.208Z,81.02
2024-01-08T21:14:02.276Z,81.20
2024-01-08T21:16:05.806Z,81.44
2024-01-08T21:18:08.961Z,81.38
2024-01-08T21:20:13.197Z,81.51
2024-01-08T21:22:17.697Z,81.73
2024-01-08T21:24:23.305Z,81.75
2024-01-08T21:26:27.711Z,81.70
2024-01-08T21:28:30.915Z,81.77
2024-01-08T21:30:34.027Z,82.02
2024-01-08T21:32:38.949Z,82.08
2024-01-08T21:34:44.410Z,82.15
2024-01-08T21:36:47.600Z,82.26
2024-01-08T21:38:52.014Z,82.18
2024-01-08T21:40:54.043Z,82.35
2024-01-08T21:42:57.080Z,82.41
2024-01-08T21:45:00.062Z,82.58
2024-01-08T21:47:03.968Z,82.63
2024-01-08T21:49:06.208Z,82.66
2024-01-08T21:51:10.182Z,82.90
2024-01-08T21:53:14.407Z,82.73
2024-01-08T21:55:18.890Z,82.84
2024-01-08T21:57:20.993Z,82.96
2024-01-08T21:59:24.061Z,83.19
2024-01-08T22:01:29.652Z,83.29
2024-01-08T22:03:32.739Z,83.46
2024-01-08T22:05:35.901Z,83.49
2024-01-08T22:07:38.954Z,83.48
2024-01-08T22:09:42.063Z,83.75
2024-01-08T22:11:46.399Z,83.90
2024-01-08T22:13:49.458Z,84.02
2024-01-08T22:15:53.161Z,84.04
2024-01-08T22:17:56.360Z,84.27
2024-01-08T22:19:59.498Z,84.11
2024-01-08T22:22:02.621Z,84.16
2024-01-08T22:24:06.560Z,84.33
2024-01-08T22:26:08.711Z,84.47
2024-01-08T22:28:13.210Z,84.72
2024-01-08T22:30:16.222Z,84.67
2024-01-08T22:32:19.436Z,84.99
2024-01-08T22:34:22.616Z,84.95
2024-01-08T22:36:25.962Z,85.07
2024-01-08T22:38:28.992Z,85.11
2024-01-08T22:40:31.965Z,85.26
2024-01-08T22:42:34.935Z,85.36
2024-01-08T22:44:39.835Z,85.33
2024-01-08T22:46:42.846Z,85.63
2024-01-08T22:48:46.321Z,85.65
2024-01-08T22:50:49.437Z,85.66
2024-01-08T22:52:52.471Z,85.74
2024-01-08T22:54:55.432Z,85.84
2024-01-08T22:56:58.385Z,85.76
2024-01-08T22:59:01.451Z,85.94
2024-01-08T23:01:11.279Z,85.94
2024-01-08T23:03:14.489Z,86.09
2024-01-08T23:05:17.685Z,86.08
2024-01-08T23:07:19.747Z,86.38
2024-01-08T23:09:22.735Z,86.44
2024-01-08T23:11:24.793Z,86.42
2024-01-08T23:13:31.134Z,86.65
2024-01-08T23:15:35.031Z,86.79
2024-01-08T23:17:39.673Z,86.93
2024-01-08T23:19:42.989Z,87.06
2024-01-08T23:21:46.488Z,87.09
2024-01-08T23:23:49.562Z,87.18
2024-01-08T23:25:51.771Z,87.30
2024-01-08T23:27:54.748Z,87.35
2024-01-08T23:30:01.394Z,87.55
2024-01-08T23:32:05.034Z,87.44
2024-01-08T23:34:17.305Z,87.83
2024-01-08T23:36:24.324Z,87.80
2024-01-08T23:38:27.393Z,87.69
2024-01-08T23:40:30.656Z,87.72
2024-01-08T23:42:33.685Z,87.83
2024-01-08T23:44:36.684Z,87.98
2024-01-08T23:46:39.746Z,88.13
2024-01-08T23:48:42.847Z,88.29
2024-01-08T23:50:47.274Z,88.05
2024-01-08T23:52:49.335Z,88.13
2024-01-08T23:54:52.327Z,88.54
2024-01-08T23:56:55.377Z,88.67
2024-01-08T23:58:58.353Z,88.76
